Flugwetter Augsburg

[source: ADDS]
METAR
EDMA 230050Z AUTO 26009KT 9999 // FEW030/// BKN056/// OVC069/// 16/14 Q1010 =
TAF EDMA 221700Z 2218/2303 VRB03KT 9999 SCT040 PROB30 TEMPO 2223/2303 23015G25KT TSRA BKN035CB
TAF
TAF EDMA 221700Z 2218/2303 VRB03KT 9999 SCT040 PROB30 TEMPO 2223/2303 23015G25KT TSRA BKN035CB =
Cookies erleichtern die Bereitstellung unserer Dienste. Mit der Nutzung unserer Dienste erklären Sie sich damit einverstanden, dass wir Cookies verwenden.
Weitere Informationen Ok